createdAt,value
2018-11-14T00:00:44.110Z,8.80
2018-11-14T00:03:12.655Z,8.70
2018-11-14T00:05:41.146Z,8.70
2018-11-14T00:08:09.800Z,8.70
2018-11-14T00:10:38.396Z,8.70
2018-11-14T00:13:06.961Z,8.70
2018-11-14T00:15:35.476Z,8.70
2018-11-14T00:18:04.162Z,8.70
2018-11-14T00:20:32.715Z,8.70
2018-11-14T00:23:01.212Z,8.60
2018-11-14T00:25:29.747Z,8.60
2018-11-14T00:27:58.304Z,8.60
2018-11-14T00:30:27.081Z,8.60
2018-11-14T00:32:55.663Z,8.60
2018-11-14T00:35:24.203Z,8.60
2018-11-14T00:37:52.701Z,8.50
2018-11-14T00:40:21.835Z,8.50
2018-11-14T00:42:50.717Z,8.50
2018-11-14T00:45:20.531Z,8.50
2018-11-14T00:47:49.518Z,8.50
2018-11-14T00:50:18.654Z,8.50
2018-11-14T00:52:47.319Z,8.50
2018-11-14T00:55:18.315Z,8.50
2018-11-14T00:57:47.893Z,8.50
2018-11-14T01:00:22.520Z,8.50
2018-11-14T01:02:51.033Z,8.50
2018-11-14T01:05:19.789Z,8.50
2018-11-14T01:07:48.313Z,8.40
2018-11-14T01:10:18.204Z,8.40
2018-11-14T01:12:47.515Z,8.40
2018-11-14T01:15:17.636Z,8.40
2018-11-14T01:17:46.247Z,8.40
2018-11-14T01:20:16.022Z,8.40
2018-11-14T01:22:45.063Z,8.40
2018-11-14T01:25:14.603Z,8.30
2018-11-14T01:27:43.662Z,8.30
2018-11-14T01:30:15.374Z,8.30
2018-11-14T01:32:44.806Z,8.30
2018-11-14T01:35:13.465Z,8.30
2018-11-14T01:37:42.088Z,8.30
2018-11-14T01:40:16.797Z,8.30
2018-11-14T01:42:46.853Z,8.30
2018-11-14T01:45:15.370Z,8.30
2018-11-14T01:47:43.968Z,8.30
2018-11-14T01:50:12.600Z,8.20
2018-11-14T01:52:42.709Z,8.20
2018-11-14T01:55:19.591Z,8.20
2018-11-14T01:57:48.143Z,8.20
2018-11-14T02:00:18.830Z,8.20
2018-11-14T02:02:47.528Z,8.20
2018-11-14T02:05:16.575Z,8.20
2018-11-14T02:07:45.227Z,8.20
2018-11-14T02:10:15.521Z,8.20
2018-11-14T02:12:44.700Z,8.20
2018-11-14T02:15:16.484Z,8.20
2018-11-14T02:17:45.034Z,8.20
2018-11-14T02:20:13.834Z,8.20
2018-11-14T02:22:42.947Z,8.20
2018-11-14T02:25:12.166Z,8.20
2018-11-14T02:27:40.735Z,8.10
2018-11-14T02:30:11.290Z,8.10
2018-11-14T02:32:40.655Z,8.10
2018-11-14T02:35:09.702Z,8.10
2018-11-14T02:37:38.685Z,8.00
2018-11-14T02:40:09.540Z,8.00
2018-11-14T02:42:38.206Z,8.00
2018-11-14T02:45:07.001Z,8.00
2018-11-14T02:47:35.518Z,8.00
2018-11-14T02:50:04.092Z,8.00
2018-11-14T02:52:32.583Z,8.00
2018-11-14T02:55:01.096Z,8.00
2018-11-14T02:57:29.549Z,8.00
2018-11-14T02:59:58.071Z,8.00
2018-11-14T03:02:26.668Z,8.00
2018-11-14T03:04:55.460Z,8.00
2018-11-14T03:07:23.997Z,8.00
2018-11-14T03:09:52.872Z,8.00
2018-11-14T03:12:21.562Z,8.00
2018-11-14T03:14:49.992Z,8.00
2018-11-14T03:17:18.548Z,7.90
2018-11-14T03:19:47.014Z,7.90
2018-11-14T03:22:15.524Z,7.90
2018-11-14T03:24:44.023Z,7.90
2018-11-14T03:27:13.284Z,7.90
2018-11-14T03:29:41.751Z,7.80
2018-11-14T03:32:10.239Z,7.80
2018-11-14T03:34:38.828Z,7.80
2018-11-14T03:37:07.404Z,7.80
2018-11-14T03:39:35.871Z,7.80
2018-11-14T03:42:04.436Z,7.80
2018-11-14T03:44:32.937Z,7.80
2018-11-14T03:47:01.451Z,7.80
2018-11-14T03:49:29.912Z,7.80
2018-11-14T03:51:58.394Z,7.80
2018-11-14T03:54:26.877Z,7.80
2018-11-14T03:56:55.394Z,7.80
2018-11-14T03:59:23.870Z,7.80
2018-11-14T04:01:52.352Z,7.80
2018-11-14T04:04:20.830Z,7.80
2018-11-14T04:06:49.405Z,7.80
2018-11-14T04:09:17.991Z,7.80
2018-11-14T04:11:46.409Z,7.80
2018-11-14T04:14:14.880Z,7.80
2018-11-14T04:16:43.460Z,7.80
2018-11-14T04:19:11.941Z,7.80
2018-11-14T04:21:40.834Z,7.80
2018-11-14T04:24:09.307Z,7.80
2018-11-14T04:26:37.802Z,7.80
2018-11-14T04:29:06.352Z,7.80
2018-11-14T04:31:34.808Z,7.80
2018-11-14T04:34:03.343Z,7.80
2018-11-14T04:36:31.811Z,7.90
2018-11-14T04:39:00.317Z,7.90
2018-11-14T04:41:28.800Z,7.90
2018-11-14T04:43:57.264Z,7.90
2018-11-14T04:46:25.751Z,7.90
2018-11-14T04:48:54.254Z,8.00
2018-11-14T04:51:22.731Z,7.90
2018-11-14T04:53:51.260Z,7.90
2018-11-14T04:56:19.732Z,7.90
2018-11-14T04:58:48.221Z,7.90
2018-11-14T05:01:16.695Z,7.90
2018-11-14T05:03:45.202Z,7.90
2018-11-14T05:06:13.670Z,8.00
2018-11-14T05:08:42.178Z,7.90
2018-11-14T05:11:10.722Z,7.90
2018-11-14T05:13:39.342Z,8.00
2018-11-14T05:16:07.865Z,8.00
2018-11-14T05:18:36.440Z,8.00
2018-11-14T05:21:05.034Z,8.00
2018-11-14T05:23:33.511Z,8.10
2018-11-14T05:26:02.035Z,8.10
2018-11-14T05:28:31.774Z,8.10
2018-11-14T05:31:00.232Z,8.10
2018-11-14T05:33:28.844Z,8.20
2018-11-14T05:35:57.312Z,8.10
2018-11-14T05:38:25.803Z,8.20
2018-11-14T05:40:54.277Z,8.20
2018-11-14T05:43:22.778Z,8.20
2018-11-14T05:45:51.226Z,8.20
2018-11-14T05:48:19.704Z,8.20
2018-11-14T05:50:48.199Z,8.20
2018-11-14T05:53:16.704Z,8.20
2018-11-14T05:55:45.226Z,8.20
2018-11-14T05:58:13.729Z,8.20
2018-11-14T06:00:42.195Z,8.20
2018-11-14T06:03:10.672Z,8.20
2018-11-14T06:05:39.127Z,8.20
2018-11-14T06:08:07.630Z,8.10
2018-11-14T06:10:36.089Z,8.10
2018-11-14T06:13:04.749Z,8.10
2018-11-14T06:15:33.229Z,8.10
2018-11-14T06:18:01.833Z,8.10
2018-11-14T06:20:30.316Z,8.10
2018-11-14T06:22:58.798Z,8.10
2018-11-14T06:25:37.491Z,8.10
2018-11-14T06:28:07.296Z,8.10
2018-11-14T06:30:36.493Z,8.10
2018-11-14T06:33:06.282Z,8.10
2018-11-14T06:35:34.758Z,8.10
2018-11-14T06:38:03.280Z,8.00
2018-11-14T06:40:31.761Z,8.10
2018-11-14T06:43:00.290Z,8.10
2018-11-14T06:45:30.139Z,8.10
2018-11-14T06:47:59.784Z,8.10
2018-11-14T06:50:28.347Z,8.20
2018-11-14T06:52:59.184Z,8.20
2018-11-14T06:55:27.689Z,8.20
2018-11-14T06:57:56.166Z,8.20
2018-11-14T07:00:30.030Z,8.20
2018-11-14T07:02:59.279Z,8.10
2018-11-14T07:05:27.804Z,8.20
2018-11-14T07:07:56.264Z,8.20
2018-11-14T07:10:26.169Z,8.20
2018-11-14T07:12:58.832Z,8.30
2018-11-14T07:15:27.314Z,8.20
2018-11-14T07:17:55.885Z,8.30
2018-11-14T07:20:26.667Z,8.30
2018-11-14T07:22:55.191Z,8.30
2018-11-14T07:25:23.690Z,8.40
2018-11-14T07:27:52.166Z,8.40
2018-11-14T07:30:21.853Z,8.40
2018-11-14T07:32:52.162Z,8.50
2018-11-14T07:35:20.857Z,8.50
2018-11-14T07:38:28.849Z,8.50
2018-11-14T07:40:58.820Z,8.50
2018-11-14T07:43:27.367Z,8.60
2018-11-14T07:45:55.889Z,8.60
2018-11-14T07:48:24.352Z,8.70
2018-11-14T07:50:52.852Z,8.70
2018-11-14T07:53:21.486Z,8.70
2018-11-14T07:55:50.065Z,8.70
2018-11-14T07:58:18.615Z,8.70
2018-11-14T08:00:47.079Z,8.80
2018-11-14T08:03:15.562Z,8.80
2018-11-14T08:05:44.452Z,8.80
2018-11-14T08:08:13.021Z,8.80
2018-11-14T08:10:41.666Z,8.80
2018-11-14T08:13:10.230Z,8.80
2018-11-14T08:15:38.829Z,8.80
2018-11-14T08:18:07.496Z,8.80
2018-11-14T08:20:35.953Z,8.80
2018-11-14T08:23:04.507Z,8.90
2018-11-14T08:25:32.987Z,8.90
2018-11-14T08:28:01.499Z,8.90
2018-11-14T08:30:30.019Z,8.90
2018-11-14T08:32:58.538Z,9.00
2018-11-14T08:35:27.067Z,9.00
2018-11-14T08:37:55.552Z,9.10
2018-11-14T08:40:24.016Z,9.10
2018-11-14T08:42:52.516Z,9.10
2018-11-14T08:45:20.978Z,9.10
2018-11-14T08:47:49.526Z,9.10
2018-11-14T08:50:18.073Z,9.20
2018-11-14T08:52:46.584Z,9.20
2018-11-14T08:55:15.583Z,9.20
2018-11-14T08:57:45.374Z,9.30
2018-11-14T09:00:18.639Z,9.30
2018-11-14T09:02:47.529Z,9.30
2018-11-14T09:05:16.031Z,9.40
2018-11-14T09:07:44.692Z,9.40
2018-11-14T09:10:15.153Z,9.40
2018-11-14T09:12:44.106Z,9.40
2018-11-14T09:15:13.690Z,9.40
2018-11-14T09:17:42.426Z,9.40
2018-11-14T09:20:16.384Z,9.50
2018-11-14T09:22:45.074Z,9.40
2018-11-14T09:25:15.264Z,9.50
2018-11-14T09:27:44.632Z,9.50
2018-11-14T09:30:16.564Z,9.50
2018-11-14T09:32:45.050Z,9.50
2018-11-14T09:35:15.227Z,9.50
2018-11-14T09:37:44.142Z,9.60
2018-11-14T09:40:14.782Z,9.60
2018-11-14T09:42:43.650Z,9.60
2018-11-14T09:45:18.844Z,9.70
2018-11-14T09:47:47.976Z,9.70
2018-11-14T09:50:19.557Z,9.70
2018-11-14T09:52:50.679Z,9.70
2018-11-14T09:55:19.168Z,9.70
2018-11-14T09:57:47.680Z,9.80
2018-11-14T10:00:18.391Z,9.80
2018-11-14T10:02:50.443Z,9.80
2018-11-14T10:05:20.500Z,9.80
2018-11-14T10:07:49.076Z,9.80
2018-11-14T10:10:18.893Z,9.90
2018-11-14T10:12:47.411Z,9.90
2018-11-14T10:15:19.079Z,9.90
2018-11-14T10:17:48.021Z,10.00
2018-11-14T10:20:18.116Z,10.00
2018-11-14T10:22:46.939Z,10.00
2018-11-14T10:25:15.993Z,10.00
2018-11-14T10:27:45.236Z,10.00
2018-11-14T10:30:16.163Z,10.10
2018-11-14T10:32:45.467Z,10.20
2018-11-14T10:35:13.900Z,10.20
2018-11-14T10:37:42.552Z,10.30
2018-11-14T10:40:16.469Z,10.40
2018-11-14T10:42:45.281Z,10.50
2018-11-14T10:45:15.254Z,10.50
2018-11-14T10:47:43.866Z,10.50
2018-11-14T10:50:15.607Z,10.60
2018-11-14T10:52:44.116Z,10.60
2018-11-14T10:55:13.471Z,10.60
2018-11-14T10:57:42.002Z,10.60
2018-11-14T11:00:20.020Z,10.60
2018-11-14T11:02:53.833Z,10.60
2018-11-14T11:05:29.515Z,10.60
2018-11-14T11:08:03.384Z,10.60
2018-11-14T11:11:37.519Z,10.60
2018-11-14T11:14:11.223Z,10.60
2018-11-14T11:16:44.993Z,10.60
2018-11-14T11:19:14.164Z,10.60
2018-11-14T11:21:42.916Z,10.60
2018-11-14T11:24:11.853Z,10.60
2018-11-14T11:26:40.338Z,10.60
2018-11-14T11:29:10.148Z,10.60
2018-11-14T11:31:38.774Z,10.70
2018-11-14T11:34:08.286Z,10.70
2018-11-14T11:36:36.870Z,10.70
2018-11-14T11:39:08.646Z,10.70
2018-11-14T11:41:37.205Z,10.70
2018-11-14T11:44:05.966Z,10.70
2018-11-14T11:46:34.495Z,10.70
2018-11-14T11:49:03.077Z,10.70
2018-11-14T11:51:31.573Z,10.70
2018-11-14T11:54:00.090Z,10.70
2018-11-14T11:56:28.616Z,10.70
2018-11-14T11:58:57.137Z,10.70
2018-11-14T12:01:25.652Z,10.80
2018-11-14T12:03:54.127Z,10.80
2018-11-14T12:06:22.661Z,10.80
2018-11-14T12:08:51.175Z,10.80
2018-11-14T12:11:19.684Z,10.80
2018-11-14T12:13:48.216Z,10.90
2018-11-14T12:16:17.976Z,10.90
2018-11-14T12:18:46.514Z,10.90
2018-11-14T12:21:15.019Z,10.90
2018-11-14T12:23:43.636Z,11.00
2018-11-14T12:26:12.039Z,11.00
2018-11-14T12:28:40.558Z,11.00
2018-11-14T12:31:09.213Z,11.00
2018-11-14T12:33:37.588Z,11.10
2018-11-14T12:36:06.646Z,11.10
2018-11-14T12:38:35.207Z,11.00
2018-11-14T12:41:03.742Z,11.10
2018-11-14T12:43:32.230Z,11.10
2018-11-14T12:46:00.735Z,11.10
2018-11-14T12:48:29.270Z,11.10
2018-11-14T12:50:57.764Z,11.10
2018-11-14T12:53:26.295Z,11.10
2018-11-14T12:55:54.810Z,11.10
2018-11-14T12:58:23.379Z,11.10
2018-11-14T13:00:51.861Z,11.10
2018-11-14T13:03:20.434Z,11.10
2018-11-14T13:05:49.194Z,11.00
2018-11-14T13:08:18.135Z,11.00
2018-11-14T13:10:46.668Z,11.00
2018-11-14T13:13:15.165Z,11.00
2018-11-14T13:15:43.671Z,11.00
2018-11-14T13:18:12.174Z,11.00
2018-11-14T13:20:40.661Z,11.00
2018-11-14T13:23:09.159Z,11.00
2018-11-14T13:25:37.697Z,11.00
2018-11-14T13:28:06.201Z,11.00
2018-11-14T13:30:34.734Z,10.90
2018-11-14T13:33:03.216Z,10.90
2018-11-14T13:35:31.718Z,10.90
2018-11-14T13:38:00.166Z,10.90
2018-11-14T13:40:28.675Z,10.90
2018-11-14T13:42:57.304Z,10.90
2018-11-14T13:45:25.792Z,10.90
2018-11-14T13:47:54.273Z,10.90
2018-11-14T13:50:23.248Z,10.80
2018-11-14T13:52:51.642Z,10.80
2018-11-14T13:55:21.031Z,10.80
2018-11-14T13:57:50.700Z,10.80
2018-11-14T14:00:20.570Z,10.80
2018-11-14T14:02:49.949Z,10.80
2018-11-14T14:05:21.554Z,10.80
2018-11-14T14:07:50.038Z,10.80
2018-11-14T14:10:18.870Z,10.80
2018-11-14T14:12:48.713Z,10.80
2018-11-14T14:15:18.738Z,10.80
2018-11-14T14:17:47.939Z,10.80
2018-11-14T14:20:17.214Z,10.80
2018-11-14T14:22:45.764Z,10.80
2018-11-14T14:25:15.520Z,10.70
2018-11-14T14:27:44.126Z,10.70
2018-11-14T14:30:14.119Z,10.70
2018-11-14T14:32:43.458Z,10.70
2018-11-14T14:35:12.823Z,10.70
2018-11-14T14:37:41.499Z,10.60
2018-11-14T14:40:12.387Z,10.60
2018-11-14T14:42:40.919Z,10.60
2018-11-14T14:45:10.566Z,10.60
2018-11-14T14:47:39.094Z,10.50
2018-11-14T14:50:09.658Z,10.50
2018-11-14T14:52:39.017Z,10.50
2018-11-14T14:55:09.360Z,10.50
2018-11-14T14:57:39.186Z,10.50
2018-11-14T15:00:13.731Z,10.40
2018-11-14T15:02:42.583Z,10.40
2018-11-14T15:05:12.266Z,10.40
2018-11-14T15:07:41.054Z,10.40
2018-11-14T15:10:12.534Z,10.40
2018-11-14T15:12:41.121Z,10.30
2018-11-14T15:15:09.677Z,10.30
2018-11-14T15:17:38.206Z,10.30
2018-11-14T15:20:09.835Z,10.30
2018-11-14T15:22:38.415Z,10.20
2018-11-14T15:28:21.487Z,10.20
2018-11-14T15:30:50.019Z,10.20
2018-11-14T15:33:18.616Z,10.20
2018-11-14T15:35:47.196Z,10.20
2018-11-14T15:38:15.733Z,10.20
2018-11-14T15:40:44.319Z,10.10
2018-11-14T15:43:12.796Z,10.10
2018-11-14T15:45:41.334Z,10.10
2018-11-14T15:48:09.853Z,10.10
2018-11-14T15:50:38.346Z,10.10
2018-11-14T15:53:06.876Z,10.10
2018-11-14T15:55:35.393Z,10.10
2018-11-14T15:58:04.009Z,10.10
2018-11-14T16:00:33.768Z,10.10
2018-11-14T16:03:02.288Z,10.10
2018-11-14T16:05:32.017Z,10.10
2018-11-14T16:08:01.531Z,10.10
2018-11-14T16:10:31.039Z,10.10
2018-11-14T16:12:59.557Z,10.10
2018-11-14T16:15:31.380Z,10.00
2018-11-14T16:17:59.936Z,10.10
2018-11-14T16:20:28.557Z,10.00
2018-11-14T16:22:57.604Z,10.00
2018-11-14T16:25:27.731Z,10.00
2018-11-14T16:27:57.576Z,10.00
2018-11-14T16:30:29.181Z,10.00
2018-11-14T16:32:58.852Z,10.00
2018-11-14T16:35:27.473Z,10.00
2018-11-14T16:37:56.047Z,10.00
2018-11-14T16:40:25.833Z,10.10
2018-11-14T16:42:55.250Z,10.00
2018-11-14T16:45:23.781Z,10.00
2018-11-14T16:47:52.250Z,10.10
2018-11-14T16:50:21.849Z,10.10
2018-11-14T16:52:50.530Z,10.10
2018-11-14T16:55:20.033Z,10.10
2018-11-14T16:57:49.276Z,10.10
2018-11-14T17:00:19.987Z,10.10
2018-11-14T17:02:48.543Z,10.10
2018-11-14T17:05:17.259Z,10.10
2018-11-14T17:07:45.785Z,10.10
2018-11-14T17:10:15.395Z,10.10
2018-11-14T17:12:44.849Z,10.10
2018-11-14T17:15:14.766Z,10.10
2018-11-14T17:17:43.290Z,10.20
2018-11-14T17:20:13.068Z,10.10
2018-11-14T17:22:42.227Z,10.10
2018-11-14T17:25:11.575Z,10.10
2018-11-14T17:27:40.103Z,10.10
2018-11-14T17:30:11.022Z,10.10
2018-11-14T17:32:39.539Z,10.10
2018-11-14T17:35:09.217Z,10.10
2018-11-14T17:37:38.399Z,10.10
2018-11-14T17:40:11.034Z,10.10
2018-11-14T17:42:39.982Z,10.10
2018-11-14T17:45:10.608Z,10.20
2018-11-14T17:47:39.293Z,10.10
2018-11-14T17:50:11.660Z,10.10
2018-11-14T17:52:40.121Z,10.10
2018-11-14T17:55:10.446Z,10.10
2018-11-14T17:57:38.951Z,10.10
2018-11-14T18:00:10.014Z,10.10
2018-11-14T18:02:38.743Z,10.20
2018-11-14T18:05:09.116Z,10.10
2018-11-14T18:07:37.927Z,10.10
2018-11-14T18:10:08.039Z,10.20
2018-11-14T18:12:41.217Z,10.10
2018-11-14T18:15:10.682Z,10.10
2018-11-14T18:17:39.955Z,10.10
2018-11-14T18:20:11.160Z,10.20
2018-11-14T18:22:40.304Z,10.10
2018-11-14T18:25:09.343Z,10.10
2018-11-14T18:27:38.087Z,10.10
2018-11-14T18:30:09.477Z,10.10
2018-11-14T18:32:38.064Z,10.10
2018-11-14T18:35:08.692Z,10.10
2018-11-14T18:37:37.293Z,10.10
2018-11-14T18:40:07.333Z,10.10
2018-11-14T18:42:35.828Z,10.10
2018-11-14T18:45:04.394Z,10.10
2018-11-14T18:47:32.899Z,10.10
2018-11-14T18:50:01.392Z,10.00
2018-11-14T18:52:29.920Z,10.00
2018-11-14T18:54:58.443Z,10.00
2018-11-14T18:57:26.904Z,10.00
2018-11-14T18:59:55.451Z,10.00
2018-11-14T19:02:23.908Z,9.90
2018-11-14T19:04:52.443Z,9.90
2018-11-14T19:07:20.983Z,9.90
2018-11-14T19:09:49.448Z,9.90
2018-11-14T19:12:18.043Z,9.80
2018-11-14T19:14:46.545Z,9.80
2018-11-14T19:17:15.079Z,9.80
2018-11-14T19:19:43.659Z,9.70
2018-11-14T19:22:12.157Z,9.70
2018-11-14T19:24:40.804Z,9.60
2018-11-14T19:27:10.993Z,9.60
2018-11-14T19:29:39.471Z,9.60
2018-11-14T19:32:08.576Z,9.60
2018-11-14T19:34:37.133Z,9.60
2018-11-14T19:37:05.725Z,9.60
2018-11-14T19:39:34.384Z,9.60
2018-11-14T19:42:02.979Z,9.60
2018-11-14T19:44:31.505Z,9.60
2018-11-14T19:47:00.038Z,9.60
2018-11-14T19:49:28.618Z,9.60
2018-11-14T19:51:57.081Z,9.60
2018-11-14T19:54:25.572Z,9.60
2018-11-14T19:56:54.109Z,9.60
2018-11-14T19:59:22.642Z,9.60
2018-11-14T20:01:51.300Z,9.60
2018-11-14T20:04:19.785Z,9.70
2018-11-14T20:06:48.288Z,9.60
2018-11-14T20:09:16.766Z,9.60
2018-11-14T20:11:45.271Z,9.60
2018-11-14T20:14:13.749Z,9.60
2018-11-14T20:16:42.442Z,9.50
2018-11-14T20:19:10.958Z,9.50
2018-11-14T20:21:39.452Z,9.50
2018-11-14T20:24:07.930Z,9.50
2018-11-14T20:26:36.382Z,9.40
2018-11-14T20:29:04.921Z,9.40
2018-11-14T20:31:33.422Z,9.40
2018-11-14T20:34:02.269Z,9.30
2018-11-14T20:36:30.784Z,9.30
2018-11-14T20:38:59.670Z,9.20
2018-11-14T20:41:28.165Z,9.20
2018-11-14T20:43:56.644Z,9.10
2018-11-14T20:46:26.001Z,9.10
2018-11-14T20:48:54.558Z,9.10
2018-11-14T20:51:23.904Z,9.00
2018-11-14T20:53:52.382Z,9.00
2018-11-14T20:56:20.895Z,9.00
2018-11-14T20:58:49.375Z,8.90
2018-11-14T21:01:17.874Z,8.90
2018-11-14T21:03:46.378Z,8.90
2018-11-14T21:06:14.882Z,8.90
2018-11-14T21:08:43.381Z,8.90
2018-11-14T21:11:11.824Z,8.80
2018-11-14T21:13:40.344Z,8.80
2018-11-14T21:16:08.934Z,8.70
2018-11-14T21:18:37.499Z,8.70
2018-11-14T21:21:05.989Z,8.70
2018-11-14T21:23:34.466Z,8.70
2018-11-14T21:26:02.919Z,8.60
2018-11-14T21:28:31.413Z,8.60
2018-11-14T21:30:59.842Z,8.50
2018-11-14T21:33:28.346Z,8.50
2018-11-14T21:35:56.846Z,8.50
2018-11-14T21:38:25.377Z,8.40
2018-11-14T21:40:53.806Z,8.40
2018-11-14T21:43:22.753Z,8.30
2018-11-14T21:45:51.479Z,8.30
2018-11-14T21:48:20.093Z,8.30
2018-11-14T21:50:48.647Z,8.20
2018-11-14T21:53:17.299Z,8.20
2018-11-14T21:55:45.757Z,8.20
2018-11-14T21:58:14.536Z,8.20
2018-11-14T22:00:42.974Z,8.10
2018-11-14T22:03:12.522Z,8.10
2018-11-14T22:05:41.099Z,8.10
2018-11-14T22:08:09.638Z,8.10
2018-11-14T22:10:38.146Z,8.10
2018-11-14T22:13:06.674Z,8.10
2018-11-14T22:15:35.238Z,8.10
2018-11-14T22:18:03.838Z,8.10
2018-11-14T22:20:32.343Z,8.20
2018-11-14T22:23:00.939Z,8.20
2018-11-14T22:25:30.166Z,8.20
2018-11-14T22:28:01.684Z,8.20
2018-11-14T22:30:32.975Z,8.20
2018-11-14T22:33:01.509Z,8.30
2018-11-14T22:35:31.297Z,8.30
2018-11-14T22:37:59.776Z,8.30
2018-11-14T22:40:29.562Z,8.30
2018-11-14T22:42:58.476Z,8.30
2018-11-14T22:45:31.127Z,8.30
2018-11-14T22:47:59.741Z,8.30
2018-11-14T22:50:28.395Z,8.30
2018-11-14T22:52:56.901Z,8.30
2018-11-14T22:55:26.080Z,8.30
2018-11-14T22:57:54.843Z,8.30
2018-11-14T23:00:26.642Z,8.30
2018-11-14T23:02:56.572Z,8.30
2018-11-14T23:05:25.110Z,8.30
2018-11-14T23:07:54.357Z,8.30
2018-11-14T23:10:23.761Z,8.30
2018-11-14T23:12:52.550Z,8.30
2018-11-14T23:15:21.847Z,8.30
2018-11-14T23:17:50.442Z,8.20
2018-11-14T23:20:19.197Z,8.30
2018-11-14T23:22:48.436Z,8.20
2018-11-14T23:25:17.322Z,8.20
2018-11-14T23:27:47.224Z,8.20
2018-11-14T23:30:16.838Z,8.20
2018-11-14T23:32:47.064Z,8.20
2018-11-14T23:35:23.532Z,8.20
2018-11-14T23:37:53.492Z,8.10
2018-11-14T23:40:22.102Z,8.10
2018-11-14T23:42:50.961Z,8.10
2018-11-14T23:45:20.511Z,8.00
2018-11-14T23:47:49.678Z,8.00
2018-11-14T23:50:21.526Z,8.00
2018-11-14T23:52:51.419Z,7.90
2018-11-14T23:55:20.655Z,7.90
2018-11-14T23:57:49.285Z,7.80
